createdAt,value
2018-12-10T00:00:03.299Z,10.30
2018-12-10T00:05:06.858Z,10.10
2018-12-10T00:10:10.086Z,10.40
2018-12-10T00:15:13.491Z,10.20
2018-12-10T00:20:18.022Z,10.20
2018-12-10T00:25:21.247Z,10.20
2018-12-10T00:30:24.486Z,10.20
2018-12-10T00:35:27.710Z,10.10
2018-12-10T00:40:31.022Z,10.20
2018-12-10T00:45:34.342Z,10.30
2018-12-10T00:50:37.561Z,10.30
2018-12-10T00:55:40.787Z,10.00
2018-12-10T01:00:44.003Z,10.10
2018-12-10T01:05:47.226Z,10.00
2018-12-10T01:10:50.450Z,10.30
2018-12-10T01:15:53.863Z,10.10
2018-12-10T01:20:57.096Z,10.10
2018-12-10T01:26:00.410Z,9.90
2018-12-10T01:31:03.806Z,10.20
2018-12-10T01:36:07.030Z,10.10
2018-12-10T01:41:10.255Z,10.20
2018-12-10T01:46:13.491Z,10.20
2018-12-10T01:51:16.730Z,10.10
2018-12-10T01:56:19.957Z,9.90
2018-12-10T02:01:24.082Z,10.00
2018-12-10T02:06:27.324Z,10.00
2018-12-10T02:11:30.562Z,10.10
2018-12-10T02:16:33.796Z,9.90
2018-12-10T02:21:37.015Z,10.20
2018-12-10T02:26:40.274Z,10.20
2018-12-10T02:31:45.270Z,10.20
2018-12-10T02:36:48.685Z,9.90
2018-12-10T02:41:52.024Z,10.20
2018-12-10T02:46:55.726Z,10.10
2018-12-10T02:51:59.102Z,10.00
2018-12-10T02:57:02.353Z,9.90
2018-12-10T03:02:05.648Z,9.90
2018-12-10T03:07:09.222Z,9.60
2018-12-10T03:12:11.754Z,9.90
2018-12-10T03:17:15.010Z,10.10
2018-12-10T03:22:18.362Z,10.10
2018-12-10T03:27:21.639Z,9.70
2018-12-10T03:32:24.888Z,10.00
2018-12-10T03:37:28.146Z,10.00
2018-12-10T03:42:31.389Z,9.90
2018-12-10T03:47:34.694Z,9.60
2018-12-10T03:52:37.912Z,9.90
2018-12-10T03:57:41.135Z,9.80
2018-12-10T04:02:44.365Z,9.90
2018-12-10T04:07:47.678Z,9.90
2018-12-10T04:12:50.888Z,9.90
2018-12-10T04:17:54.114Z,9.60
2018-12-10T04:22:57.443Z,9.90
2018-12-10T04:28:00.698Z,9.60
2018-12-10T04:33:04.102Z,9.80
2018-12-10T04:38:07.345Z,9.70
2018-12-10T04:43:10.630Z,9.90
2018-12-10T04:48:14.059Z,9.70
2018-12-10T04:53:17.310Z,9.90
2018-12-10T04:58:20.623Z,9.90
2018-12-10T05:03:23.865Z,9.60
2018-12-10T05:08:27.202Z,9.80
2018-12-10T05:13:30.646Z,9.60
2018-12-10T05:18:33.882Z,9.60
2018-12-10T05:23:37.114Z,9.70
2018-12-10T05:28:40.333Z,9.80
2018-12-10T05:33:43.553Z,9.90
2018-12-10T05:38:46.766Z,9.50
2018-12-10T05:43:49.984Z,9.90
2018-12-10T05:48:53.224Z,9.70
2018-12-10T05:53:56.448Z,9.50
2018-12-10T05:58:59.670Z,9.60
2018-12-10T06:04:03.030Z,9.30
2018-12-10T06:09:07.141Z,9.50
2018-12-10T06:14:10.438Z,9.60
2018-12-10T06:19:13.752Z,9.50
2018-12-10T06:24:16.959Z,9.30
2018-12-10T06:29:20.308Z,9.60
2018-12-10T06:34:23.841Z,9.40
2018-12-10T06:39:27.159Z,9.50
2018-12-10T06:44:30.414Z,9.30
2018-12-10T06:49:33.654Z,9.50
2018-12-10T06:54:36.950Z,9.50
2018-12-10T06:59:40.157Z,9.40
2018-12-10T07:04:43.386Z,9.30
2018-12-10T07:09:46.654Z,9.60
2018-12-10T07:14:49.898Z,9.60
2018-12-10T07:19:53.098Z,9.40
2018-12-10T07:24:56.311Z,9.30
2018-12-10T07:29:59.569Z,9.50
2018-12-10T07:35:02.954Z,9.30
2018-12-10T07:40:06.787Z,9.50
2018-12-10T07:45:10.961Z,9.60
2018-12-10T07:50:14.192Z,9.30
2018-12-10T07:55:17.408Z,9.20
2018-12-10T08:00:21.658Z,9.50
2018-12-10T08:05:24.930Z,9.50
2018-12-10T08:10:28.167Z,9.50
2018-12-10T08:15:31.379Z,9.30
2018-12-10T08:20:34.818Z,9.50
2018-12-10T08:25:38.046Z,9.30
2018-12-10T08:30:41.415Z,9.20
2018-12-10T08:35:44.850Z,9.40
2018-12-10T08:40:48.093Z,9.20
2018-12-10T08:45:51.526Z,9.30
2018-12-10T08:50:54.777Z,9.50
2018-12-10T08:55:58.466Z,9.30
2018-12-10T09:01:01.702Z,9.20
2018-12-10T09:06:05.355Z,9.30
2018-12-10T09:11:08.577Z,9.30
2018-12-10T09:16:12.094Z,9.40
2018-12-10T09:21:15.306Z,9.30
2018-12-10T09:26:18.545Z,9.50
2018-12-10T09:31:21.954Z,9.30
2018-12-10T09:36:25.170Z,9.50
2018-12-10T09:41:28.578Z,9.50
2018-12-10T09:46:31.822Z,9.40
2018-12-10T09:51:35.053Z,9.20
2018-12-10T09:56:38.277Z,9.30
2018-12-10T10:01:41.714Z,9.30
2018-12-10T10:06:44.978Z,9.30
2018-12-10T10:11:48.553Z,9.20
2018-12-10T10:16:51.839Z,9.20
2018-12-10T10:21:55.070Z,9.30
2018-12-10T10:27:00.310Z,9.30
2018-12-10T10:32:03.545Z,9.30
2018-12-10T10:37:06.786Z,9.30
2018-12-10T10:42:10.021Z,9.60
2018-12-10T10:47:13.247Z,9.60
2018-12-10T10:52:16.481Z,9.50
2018-12-10T10:57:19.726Z,9.50
2018-12-10T11:02:28.477Z,9.60
2018-12-10T11:07:32.082Z,9.30
2018-12-10T11:12:35.306Z,9.30
2018-12-10T11:17:39.557Z,9.30
2018-12-10T11:22:42.890Z,9.60
2018-12-10T11:27:46.119Z,9.30
2018-12-10T11:32:49.338Z,9.30
2018-12-10T11:37:52.670Z,9.50
2018-12-10T11:42:55.900Z,9.60
2018-12-10T11:47:59.126Z,9.60
2018-12-10T11:53:02.683Z,9.40
2018-12-10T11:58:06.001Z,9.60
2018-12-10T12:03:09.686Z,9.60
2018-12-10T12:08:12.899Z,9.50
2018-12-10T12:13:16.354Z,9.30
2018-12-10T12:18:19.671Z,9.70
2018-12-10T12:23:22.914Z,9.30
2018-12-10T12:28:26.375Z,9.30
2018-12-10T12:33:29.594Z,9.60
2018-12-10T12:38:32.906Z,9.50
2018-12-10T12:43:36.133Z,9.60
2018-12-10T12:48:39.485Z,9.50
2018-12-10T12:53:42.806Z,9.60
2018-12-10T12:58:46.026Z,9.50
2018-12-10T13:03:50.378Z,9.80
2018-12-10T13:08:53.711Z,9.50
2018-12-10T13:13:56.943Z,9.60
2018-12-10T13:19:00.209Z,9.80
2018-12-10T13:24:03.430Z,9.50
2018-12-10T13:29:06.788Z,9.50
2018-12-10T13:34:10.074Z,9.60
2018-12-10T13:39:13.302Z,9.50
2018-12-10T13:44:16.520Z,9.80
2018-12-10T13:49:19.765Z,9.60
2018-12-10T13:54:23.006Z,9.50
2018-12-10T13:59:26.241Z,9.80
2018-12-10T14:04:35.637Z,9.50
2018-12-10T14:09:38.937Z,9.50
2018-12-10T14:14:42.283Z,9.80
2018-12-10T14:19:45.712Z,9.50
2018-12-10T14:24:49.042Z,9.50
2018-12-10T14:29:53.025Z,9.80
2018-12-10T14:34:56.378Z,9.80
2018-12-10T14:39:59.606Z,9.70
2018-12-10T14:45:02.956Z,9.50
2018-12-10T14:50:06.285Z,9.70
2018-12-10T14:55:09.705Z,9.50
2018-12-10T15:00:13.346Z,9.30
2018-12-10T15:05:16.662Z,9.30
2018-12-10T15:10:23.297Z,9.50
2018-12-10T15:15:25.230Z,9.30
2018-12-10T15:20:28.582Z,9.30
2018-12-10T15:25:31.831Z,9.60
2018-12-10T15:30:35.514Z,9.50
2018-12-10T15:35:38.748Z,10.20
2018-12-10T15:40:41.979Z,9.60
2018-12-10T15:45:45.295Z,9.60
2018-12-10T15:50:48.682Z,9.90
2018-12-10T15:55:51.919Z,10.20
2018-12-10T16:00:55.260Z,10.20
2018-12-10T16:05:58.511Z,9.90
2018-12-10T16:11:01.758Z,9.50
2018-12-10T16:16:05.212Z,9.90
2018-12-10T16:21:08.426Z,9.50
2018-12-10T16:26:11.658Z,9.50
2018-12-10T16:31:14.919Z,9.70
2018-12-10T16:36:18.278Z,9.60
2018-12-10T16:41:21.801Z,9.30
2018-12-10T16:46:25.103Z,9.20
2018-12-10T16:51:28.338Z,9.20
2018-12-10T16:56:32.141Z,9.60
2018-12-10T17:01:36.382Z,9.90
2018-12-10T17:06:39.843Z,9.80
2018-12-10T17:11:43.362Z,9.50
2018-12-10T17:16:46.685Z,9.30
2018-12-10T17:21:49.993Z,9.50
2018-12-10T17:26:53.222Z,9.30
2018-12-10T17:31:56.471Z,10.50
2018-12-10T17:36:59.807Z,10.10
2018-12-10T17:42:03.118Z,9.60
2018-12-10T17:47:08.767Z,9.80
2018-12-10T17:52:11.583Z,9.60
2018-12-10T17:57:14.817Z,9.30
2018-12-10T18:02:18.227Z,9.30
2018-12-10T18:07:21.446Z,9.50
2018-12-10T18:12:25.680Z,9.20
2018-12-10T18:17:28.906Z,9.50
2018-12-10T18:22:32.121Z,9.20
2018-12-10T18:27:35.334Z,9.20
2018-12-10T18:32:38.563Z,9.20
2018-12-10T18:37:42.026Z,9.20
2018-12-10T18:42:45.647Z,9.00
2018-12-10T18:47:48.867Z,9.00
2018-12-10T18:52:52.174Z,9.00
2018-12-10T18:57:55.619Z,9.00
2018-12-10T19:02:58.858Z,9.00
2018-12-10T19:13:30.423Z,9.20
2018-12-10T19:18:34.546Z,9.20
2018-12-10T19:23:38.824Z,9.00
2018-12-10T19:28:42.206Z,9.10
2018-12-10T19:33:45.475Z,9.10
2018-12-10T19:38:48.756Z,9.00
2018-12-10T19:43:52.310Z,9.20
2018-12-10T19:48:55.559Z,8.90
2018-12-10T19:54:00.556Z,9.20
2018-12-10T19:59:04.334Z,8.90
2018-12-10T20:04:08.664Z,8.90
2018-12-10T20:09:11.899Z,8.90
2018-12-10T20:14:15.138Z,9.20
2018-12-10T20:19:18.395Z,8.90
2018-12-10T20:24:21.622Z,9.10
2018-12-10T20:29:24.965Z,8.90
2018-12-10T20:34:28.288Z,9.20
2018-12-10T20:39:31.799Z,8.90
2018-12-10T20:44:35.019Z,9.00
2018-12-10T20:49:38.697Z,8.90
2018-12-10T20:54:42.066Z,9.00
2018-12-10T20:59:45.392Z,9.00
2018-12-10T21:04:48.639Z,8.90
2018-12-10T21:09:51.855Z,8.90
2018-12-10T21:15:00.322Z,9.00
2018-12-10T21:20:04.376Z,9.00
2018-12-10T21:25:07.864Z,9.20
2018-12-10T21:30:11.186Z,9.10
2018-12-10T21:35:14.426Z,9.00
2018-12-10T21:40:17.754Z,9.10
2018-12-10T21:45:21.027Z,9.20
2018-12-10T21:50:24.272Z,8.90
2018-12-10T21:55:27.490Z,8.90
2018-12-10T22:00:31.743Z,8.90
2018-12-10T22:05:36.458Z,9.00
2018-12-10T22:10:39.668Z,8.90
2018-12-10T22:15:43.030Z,8.90
2018-12-10T22:20:46.312Z,9.00
2018-12-10T22:25:49.573Z,8.90
2018-12-10T22:30:52.854Z,9.00
2018-12-10T22:35:56.146Z,9.00
2018-12-10T22:40:59.460Z,9.00
2018-12-10T22:46:03.003Z,9.20
2018-12-10T22:51:06.405Z,8.90
2018-12-10T22:56:09.626Z,9.10
2018-12-10T23:01:15.101Z,9.10
2018-12-10T23:06:18.337Z,9.00
2018-12-10T23:11:22.057Z,8.90
2018-12-10T23:16:25.279Z,8.90
2018-12-10T23:21:28.498Z,9.00
2018-12-10T23:26:31.720Z,9.00
2018-12-10T23:31:35.054Z,9.10
2018-12-10T23:36:38.277Z,8.90
2018-12-10T23:41:41.509Z,8.90
2018-12-10T23:46:44.765Z,8.90
2018-12-10T23:51:48.014Z,8.80
2018-12-10T23:56:51.249Z,9.10
